Time;durP1;ratioP1;P1;durP2;ratioP2;P2;SDS_P1;SDS_P2;PMS_P1;PMS_P2;Temp;Humidity;BMP_temperature;BMP_pressure;BME280_temperature;BME280_humidity;BME280_pressure;Samples;Min_cycle;Max_cycle;Signal;HPM_P1;HPM_P2
2021/09/26 00:02:00;;;;;;;;;;;;;;;8.88;86.15;101822.22;2002264;72;20110;-61
2021/09/26 00:04:28;;;;;;;;;;;;;;;8.89;86.06;101818.72;2002279;72;20105;-61
2021/09/26 00:06:56;;;;;;;;;;;;;;;8.93;85.99;101827.84;2002237;72;20110;-61
2021/09/26 00:09:24;;;;;;;;;;;;;;;8.91;86.12;101819.13;2002368;72;20159;-62
2021/09/26 00:11:52;;;;;;;;;;;;;;;8.89;86.26;101821.80;2002408;72;20226;-61
2021/09/26 00:14:19;;;;;;;;;;;;;;;8.88;86.52;101820.91;2002437;72;20101;-61
2021/09/26 00:16:47;;;;;;;;;;;;;;;8.88;86.49;101822.22;2002377;72;20110;-61
2021/09/26 00:19:15;;;;;;;;;;;;;;;8.89;86.43;101823.11;2002377;72;20140;-61
2021/09/26 00:21:43;;;;;;;;;;;;;;;8.88;86.58;101823.53;2002458;72;20114;-61
2021/09/26 00:24:11;;;;;;;;;;;;;;;8.87;86.63;101822.23;2002312;72;20101;-60
2021/09/26 00:26:39;;;;;;;;;;;;;;;8.85;86.64;101820.08;2002417;72;20344;-61
2021/09/26 00:29:06;;;;;;;;;;;;;;;8.83;86.62;101813.53;2002435;72;20155;-61
2021/09/26 00:31:34;;;;;;;;;;;;;;;8.81;86.62;101820.57;2002402;72;20152;-61
2021/09/26 00:34:02;;;;;;;;;;;;;;;8.79;86.70;101817.10;2002391;72;20110;-61
2021/09/26 00:36:30;;;;;;;;;;;;;;;8.78;86.94;101824.58;2002352;72;20113;-61
2021/09/26 00:38:58;;;;;;;;;;;;;;;8.79;87.15;101818.41;2002505;72;20144;-61
2021/09/26 00:41:25;;;;;;;;;;;;;;;8.82;87.04;101817.06;2002337;72;20114;-61
2021/09/26 00:43:53;;;;;;;;;;;;;;;8.84;86.93;101811.34;2002376;72;20101;-61
2021/09/26 00:46:21;;;;;;;;;;;;;;;8.88;87.08;101810.40;2002432;72;20109;-61
2021/09/26 00:48:49;;;;;;;;;;;;;;;8.92;86.99;101826.98;2002399;72;20105;-61
2021/09/26 00:51:18;;;;;;;;;;;;;;;8.93;86.89;101822.59;2002196;72;20118;-61
2021/09/26 00:53:46;;;;;;;;;;;;;;;8.92;86.86;101819.56;2002187;72;20230;-61
2021/09/26 00:56:14;;;;;;;;;;;;;;;8.94;86.87;101821.71;2002286;72;20423;-61
2021/09/26 00:58:43;;;;;;;;;;;;;;;8.95;86.83;101825.64;2002444;72;20135;-61
2021/09/26 01:04:01;;;;;;;;;;;;;;;8.99;86.67;101821.20;1902768;75;20158;-61
2021/09/26 01:06:49;;;;;;;;;;;;;;;8.95;86.51;101826.09;1903000;75;20131;-61
2021/09/26 01:09:18;;;;;;;;;;;;;;;8.88;86.41;101820.91;1902754;75;20151;-61
2021/09/26 01:11:54;;;;;;;;;;;;;;;8.81;86.62;101818.40;1901717;75;20175;-61
2021/09/26 01:14:26;;;;;;;;;;;;;;;8.76;86.71;101822.42;1890956;75;20112;-61
2021/09/26 01:16:57;;;;;;;;;;;;;;;8.71;86.81;101821.61;1902824;75;20116;-61
2021/09/26 01:19:26;;;;;;;;;;;;;;;8.67;86.86;101818.61;1902805;75;20116;-61
2021/09/26 01:22:05;;;;;;;;;;;;;;;8.62;87.05;101824.36;1899880;75;20194;-61
2021/09/26 01:24:49;;;;;;;;;;;;;;;8.58;87.08;101824.84;1902506;75;20182;-61
2021/09/26 01:27:18;;;;;;;;;;;;;;;8.54;87.14;101820.95;1902875;75;20146;-61
2021/09/26 01:29:56;;;;;;;;;;;;;;;8.48;87.46;101812.30;1902785;75;20456;-61
2021/09/26 01:32:25;;;;;;;;;;;;;;;8.46;87.54;101812.73;1902770;75;20151;-61
2021/09/26 01:34:55;;;;;;;;;;;;;;;8.43;87.41;101811.93;1902756;75;20116;-62
2021/09/26 01:37:30;;;;;;;;;;;;;;;8.40;87.57;101803.60;1902788;75;20155;-61
2021/09/26 01:40:05;;;;;;;;;;;;;;;8.38;87.43;101809.77;1902758;75;20104;-61
2021/09/26 01:42:41;;;;;;;;;;;;;;;8.37;87.33;101815.89;1902790;75;20107;-61
2021/09/26 01:45:19;;;;;;;;;;;;;;;8.37;87.74;101813.27;1902307;75;20104;-61
2021/09/26 01:47:48;;;;;;;;;;;;;;;8.37;87.70;101819.38;1902722;75;20171;-61
2021/09/26 01:50:17;;;;;;;;;;;;;;;8.37;87.59;101827.25;1902488;75;20222;-61
2021/09/26 01:52:46;;;;;;;;;;;;;;;8.36;87.59;101815.03;1902780;75;20116;-61
2021/09/26 01:55:14;;;;;;;;;;;;;;;8.37;87.56;101815.44;1902884;75;20377;-61
2021/09/26 01:57:43;;;;;;;;;;;;;;;8.42;87.50;101819.38;1902771;75;20163;-61
2021/09/26 02:00:12;;;;;;;;;;;;;;;8.46;87.42;101820.60;1902758;75;20116;-61
2021/09/26 02:02:40;;;;;;;;;;;;;;;8.46;87.39;101823.23;1909142;74;20113;-61
2021/09/26 02:05:09;;;;;;;;;;;;;;;8.47;87.32;101822.81;1924304;75;20106;-61
2021/09/26 02:07:41;;;;;;;;;;;;;;;8.44;87.47;101823.70;1924309;75;20392;-61
2021/09/26 02:10:10;;;;;;;;;;;;;;;8.42;87.56;101827.24;1924348;74;20110;-61
2021/09/26 02:12:38;;;;;;;;;;;;;;;8.42;87.60;101822.85;1931017;74;20376;-61
2021/09/26 02:15:07;;;;;;;;;;;;;;;8.43;87.48;101825.06;1931017;74;20102;-62
2021/09/26 02:17:36;;;;;;;;;;;;;;;8.43;87.57;101823.30;1931070;74;20156;-61
2021/09/26 02:20:05;;;;;;;;;;;;;;;8.47;87.63;101822.81;1931046;74;20110;-61
2021/09/26 02:22:36;;;;;;;;;;;;;;;8.50;87.56;101827.58;1931069;74;20149;-61
2021/09/26 02:25:09;;;;;;;;;;;;;;;8.50;87.50;101827.58;1986554;72;20401;-61
2021/09/26 02:27:37;;;;;;;;;;;;;;;8.52;87.49;101829.30;1989866;72;20174;-61
2021/09/26 02:30:06;;;;;;;;;;;;;;;8.50;87.59;101824.95;1989746;72;20136;-61
2021/09/26 02:32:34;;;;;;;;;;;;;;;8.47;87.45;101822.36;1989758;72;20398;-61
2021/09/26 02:35:02;;;;;;;;;;;;;;;8.44;87.46;101827.63;1989778;72;20162;-62
2021/09/26 02:37:30;;;;;;;;;;;;;;;8.42;87.37;101834.66;1989753;72;20128;-62
2021/09/26 02:39:58;;;;;;;;;;;;;;;8.35;87.62;101829.03;1989757;72;20128;-61
2021/09/26 02:42:27;;;;;;;;;;;;;;;8.33;87.81;101827.33;1989716;72;20163;-62
2021/09/26 02:44:56;;;;;;;;;;;;;;;8.32;88.04;101830.40;1985543;72;20166;-61
2021/09/26 02:47:29;;;;;;;;;;;;;;;8.30;88.12;101828.24;1989803;72;20124;-61
2021/09/26 02:49:57;;;;;;;;;;;;;;;8.30;88.18;101828.24;1989776;72;20179;-61
2021/09/26 02:52:25;;;;;;;;;;;;;;;8.29;88.14;101826.04;1989722;72;20159;-61
2021/09/26 02:54:53;;;;;;;;;;;;;;;8.29;88.29;101833.05;1989791;72;20132;-61
2021/09/26 02:57:23;;;;;;;;;;;;;;;8.28;88.27;101820.80;1989785;72;20144;-61
2021/09/26 02:59:50;;;;;;;;;;;;;;;8.23;88.34;101819.56;1989890;72;20144;-61
2021/09/26 03:02:18;;;;;;;;;;;;;;;8.21;88.38;101820.48;1989783;72;20140;-61
2021/09/26 03:04:46;;;;;;;;;;;;;;;8.17;88.42;101823.58;1989684;72;20136;-61
2021/09/26 03:07:14;;;;;;;;;;;;;;;8.15;88.50;101829.27;1989871;72;20124;-61
2021/09/26 03:09:42;;;;;;;;;;;;;;;8.13;88.58;101832.35;1989692;72;20163;-62
2021/09/26 03:12:14;;;;;;;;;;;;;;;8.10;88.67;101831.95;1989855;72;20120;-61
2021/09/26 03:14:42;;;;;;;;;;;;;;;8.09;88.66;101829.34;1989780;72;20137;-62
2021/09/26 03:17:10;;;;;;;;;;;;;;;8.07;88.74;101830.66;1989789;72;20162;-62
2021/09/26 03:19:38;;;;;;;;;;;;;;;8.04;88.74;101833.34;1989713;72;20128;-62
2021/09/26 03:22:06;;;;;;;;;;;;;;;8.01;88.79;101822.88;1989807;72;20166;-62
2021/09/26 03:24:34;;;;;;;;;;;;;;;7.99;88.68;101825.96;2006354;71;20112;-62
2021/09/26 03:27:08;;;;;;;;;;;;;;;7.98;88.80;101828.14;2022885;71;20186;-62
2021/09/26 03:29:33;;;;;;;;;;;;;;;7.97;88.82;101830.78;2022158;71;20112;-63
2021/09/26 03:32:01;;;;;;;;;;;;;;;7.97;88.89;101834.72;2023057;71;20214;-62
2021/09/26 03:34:29;;;;;;;;;;;;;;;7.96;88.86;101832.54;2022889;71;20104;-62
2021/09/26 03:36:56;;;;;;;;;;;;;;;7.96;88.84;101836.48;2022826;71;20147;-62
2021/09/26 03:39:24;;;;;;;;;;;;;;;7.95;88.97;101843.94;2022818;71;20108;-62
2021/09/26 03:41:52;;;;;;;;;;;;;;;7.96;88.85;101845.66;2023131;71;20120;-62
2021/09/26 03:44:20;;;;;;;;;;;;;;;7.98;88.87;101845.19;2022807;71;20092;-63
2021/09/26 03:46:48;;;;;;;;;;;;;;;8.06;88.77;101846.42;2022871;71;20112;-63
2021/09/26 03:49:18;;;;;;;;;;;;;;;8.10;88.64;101848.14;2022902;71;20104;-62
2021/09/26 03:51:45;;;;;;;;;;;;;;;8.12;88.57;101850.31;2022927;71;20135;-62
2021/09/26 03:54:13;;;;;;;;;;;;;;;8.15;88.58;101846.77;2022981;71;20108;-63
2021/09/26 03:56:41;;;;;;;;;;;;;;;8.20;88.59;101847.59;2022782;71;20108;-63
2021/09/26 03:59:09;;;;;;;;;;;;;;;8.27;88.56;101845.33;2022937;71;20084;-62
2021/09/26 04:01:37;;;;;;;;;;;;;;;8.34;88.56;101839.12;2022859;71;20171;-62
2021/09/26 04:04:05;;;;;;;;;;;;;;;8.39;88.36;101841.25;2022823;71;20104;-62
2021/09/26 04:06:33;;;;;;;;;;;;;;;8.42;88.21;101839.91;2022863;71;20142;-62
2021/09/26 04:09:01;;;;;;;;;;;;;;;8.49;88.16;101839.41;2022875;71;20108;-62
2021/09/26 04:11:29;;;;;;;;;;;;;;;8.72;88.01;101842.16;2022708;71;20154;-63
2021/09/26 04:13:57;;;;;;;;;;;;;;;8.97;87.70;101836.13;2022846;71;20155;-63
2021/09/26 04:16:25;;;;;;;;;;;;;;;9.13;87.52;101832.38;2022856;71;20116;-62
2021/09/26 04:18:53;;;;;;;;;;;;;;;9.14;86.83;101831.47;2022815;71;20134;-63
2021/09/26 04:21:21;;;;;;;;;;;;;;;9.10;86.47;101827.16;2022800;71;20100;-62
2021/09/26 04:23:49;;;;;;;;;;;;;;;9.06;86.43;101830.73;2022795;71;20108;-63
2021/09/26 04:26:17;;;;;;;;;;;;;;;9.02;86.49;101825.97;2022904;71;20124;-62
2021/09/26 04:28:46;;;;;;;;;;;;;;;8.98;86.52;101825.60;2022864;71;20100;-62
2021/09/26 04:31:14;;;;;;;;;;;;;;;9.07;86.75;101829.83;2022922;71;20203;-62
2021/09/26 04:33:42;;;;;;;;;;;;;;;9.18;86.81;101821.33;2022856;71;20116;-62
2021/09/26 04:36:10;;;;;;;;;;;;;;;9.28;86.69;101819.44;2022841;71;20112;-62
2021/09/26 04:38:38;;;;;;;;;;;;;;;9.42;86.54;101825.77;2022752;71;20194;-62
2021/09/26 04:41:05;;;;;;;;;;;;;;;9.58;86.28;101821.13;2022820;71;20096;-62
2021/09/26 04:43:54;;;;;;;;;;;;;;;9.81;86.09;101815.42;2023001;71;20149;-60
2021/09/26 04:46:22;;;;;;;;;;;;;;;10.16;85.71;101830.98;2022946;71;20138;-60
2021/09/26 04:48:50;;;;;;;;;;;;;;;10.48;85.39;101829.52;2022841;71;20116;-61
2021/09/26 04:51:18;;;;;;;;;;;;;;;10.79;85.38;101830.58;2022892;71;20134;-60
2021/09/26 04:53:46;;;;;;;;;;;;;;;11.14;85.40;101834.16;2022982;71;20142;-61
2021/09/26 04:56:14;;;;;;;;;;;;;;;11.57;85.22;101825.17;2023084;71;20107;-60
2021/09/26 04:58:41;;;;;;;;;;;;;;;11.92;83.17;101820.77;2023053;71;20110;-60
2021/09/26 05:01:10;;;;;;;;;;;;;;;12.44;80.29;101818.88;2023167;71;20100;-60
2021/09/26 05:03:38;;;;;;;;;;;;;;;13.06;78.38;101819.17;2023246;71;20390;-60
2021/09/26 05:06:06;;;;;;;;;;;;;;;13.44;76.14;101823.20;2023075;71;20109;-60
2021/09/26 05:08:34;;;;;;;;;;;;;;;13.26;75.40;101822.47;2023110;71;20105;-60
2021/09/26 05:11:02;;;;;;;;;;;;;;;13.08;75.79;101815.55;2023199;71;20112;-60
2021/09/26 05:13:30;;;;;;;;;;;;;;;12.94;75.96;101823.91;2023049;71;20104;-60
2021/09/26 05:15:58;;;;;;;;;;;;;;;12.85;75.99;101823.34;2023082;71;20100;-61
2021/09/26 05:18:25;;;;;;;;;;;;;;;12.84;76.37;101824.28;2023066;71;20142;-61
2021/09/26 05:20:54;;;;;;;;;;;;;;;12.81;76.37;101825.22;2023016;71;20108;-61
2021/09/26 05:23:22;;;;;;;;;;;;;;;12.83;76.63;101829.14;2023060;71;20134;-61
2021/09/26 05:25:50;;;;;;;;;;;;;;;12.85;76.92;101825.52;2023033;71;20120;-61
2021/09/26 05:28:17;;;;;;;;;;;;;;;12.83;76.73;101827.81;2023020;71;20108;-61
2021/09/26 05:30:46;;;;;;;;;;;;;;;12.81;76.81;101836.25;2022963;71;20222;-61
2021/09/26 05:33:14;;;;;;;;;;;;;;;12.81;77.09;101834.93;2023048;71;20095;-61
2021/09/26 05:35:42;;;;;;;;;;;;;;;12.80;77.27;101823.50;2023048;71;20100;-60
2021/09/26 05:38:10;;;;;;;;;;;;;;;12.81;77.38;101830.97;2023031;71;20146;-61
2021/09/26 05:40:38;;;;;;;;;;;;;;;12.82;77.46;101835.32;2023038;71;20116;-61
2021/09/26 05:43:05;;;;;;;;;;;;;;;12.83;77.56;101828.67;2022804;71;20108;-62
2021/09/26 05:45:33;;;;;;;;;;;;;;;12.86;77.53;101833.87;2023031;71;20116;-60
2021/09/26 05:48:01;;;;;;;;;;;;;;;12.89;77.42;101830.26;2023269;71;20358;-60
2021/09/26 05:50:29;;;;;;;;;;;;;;;12.94;77.46;101830.98;2023139;71;20163;-61
2021/09/26 05:52:57;;;;;;;;;;;;;;;12.98;77.09;101836.58;2023013;71;20112;-60
2021/09/26 05:55:25;;;;;;;;;;;;;;;13.04;76.59;101831.55;2023014;71;20112;-61
2021/09/26 05:57:53;;;;;;;;;;;;;;;13.09;76.64;101832.27;2022830;71;20194;-61
2021/09/26 06:00:24;;;;;;;;;;;;;;;13.13;76.78;101830.82;2023008;71;20108;-60
2021/09/26 06:02:50;;;;;;;;;;;;;;;13.18;76.97;101833.77;2022820;71;20112;-61
2021/09/26 06:05:18;;;;;;;;;;;;;;;13.20;77.14;101830.61;2022957;71;20146;-61
2021/09/26 06:07:46;;;;;;;;;;;;;;;13.21;77.25;101824.42;2023037;71;20108;-61
2021/09/26 06:10:14;;;;;;;;;;;;;;;13.24;77.33;101826.95;2022898;71;20104;-61
2021/09/26 06:12:42;;;;;;;;;;;;;;;13.27;77.46;101831.67;2023036;71;20142;-61
2021/09/26 06:15:10;;;;;;;;;;;;;;;13.32;77.50;101827.61;2022843;71;20112;-61
2021/09/26 06:17:38;;;;;;;;;;;;;;;13.38;77.50;101823.42;2022276;71;20096;-62
2021/09/26 06:20:07;;;;;;;;;;;;;;;13.45;77.46;101826.27;2022866;71;20112;-62
2021/09/26 06:22:35;;;;;;;;;;;;;;;13.53;77.46;101821.18;2006048;71;20115;-62
2021/09/26 06:25:03;;;;;;;;;;;;;;;13.60;77.37;101817.41;2003294;72;20179;-68
2021/09/26 06:27:31;;;;;;;;;;;;;;;13.69;77.21;101817.95;2019492;71;20125;-64
2021/09/26 06:29:59;;;;;;;;;;;;;;;13.76;77.14;101817.28;2023015;71;20151;-64
2021/09/26 06:32:31;;;;;;;;;;;;;;;13.86;77.01;101820.46;1993390;71;20140;-71
2021/09/26 06:34:56;;;;;;;;;;;;;;;13.96;76.79;101819.66;1986453;72;20140;-65
2021/09/26 06:37:24;;;;;;;;;;;;;;;14.07;76.62;101818.81;1963007;71;20508;-66
2021/09/26 06:39:53;;;;;;;;;;;;;;;14.21;76.56;101824.94;1951546;72;20120;-71
2021/09/26 06:42:21;;;;;;;;;;;;;;;14.33;76.25;101816.55;2006728;71;20099;-66
2021/09/26 06:44:49;;;;;;;;;;;;;;;14.45;75.57;101815.20;2023205;71;20167;-68
2021/09/26 06:47:17;;;;;;;;;;;;;;;14.54;75.31;101813.53;1982180;71;20110;-68
2021/09/26 06:49:45;;;;;;;;;;;;;;;14.59;74.71;101807.63;1967679;73;20152;-68
2021/09/26 06:52:13;;;;;;;;;;;;;;;14.65;74.22;101807.38;1967970;71;20169;-68
2021/09/26 06:54:42;;;;;;;;;;;;;;;14.77;73.20;101799.86;1967551;72;20113;-71
2021/09/26 06:57:11;;;;;;;;;;;;;;;14.86;73.20;101802.15;2005917;71;20112;-60
2021/09/26 06:59:39;;;;;;;;;;;;;;;14.90;72.10;101803.74;2022965;71;20096;-64
2021/09/26 07:02:27;;;;;;;;;;;;;;;14.97;72.45;101801.72;1873987;77;20255;-68
2021/09/26 07:04:55;;;;;;;;;;;;;;;15.00;72.69;101799.81;1874196;77;20113;-65
2021/09/26 07:07:23;;;;;;;;;;;;;;;15.06;72.82;101798.22;1874211;77;20623;-63
2021/09/26 07:09:52;;;;;;;;;;;;;;;15.12;72.49;101796.25;1874217;77;20105;-62
2021/09/26 07:12:20;;;;;;;;;;;;;;;15.23;72.00;101784.72;1874151;77;20121;-63
2021/09/26 07:14:51;;;;;;;;;;;;;;;15.36;70.40;101780.65;1874161;77;20152;-62
2021/09/26 07:17:19;;;;;;;;;;;;;;;15.50;70.02;101783.17;1874117;77;20125;-64
2021/09/26 07:19:47;;;;;;;;;;;;;;;15.62;70.26;101775.53;1874197;77;20379;-62
2021/09/26 07:22:19;;;;;;;;;;;;;;;15.75;69.15;101768.38;1850496;77;20120;-63
2021/09/26 07:24:44;;;;;;;;;;;;;;;15.91;68.57;101758.79;1841299;78;20116;-61
2021/09/26 07:27:15;;;;;;;;;;;;;;;16.05;66.27;101751.53;1841349;78;20170;-61
2021/09/26 07:29:42;;;;;;;;;;;;;;;16.16;65.89;101750.56;1841269;78;20229;-61
2021/09/26 07:32:10;;;;;;;;;;;;;;;16.28;64.16;101753.58;1841377;78;20150;-60
2021/09/26 07:34:38;;;;;;;;;;;;;;;16.37;63.55;101740.71;1841365;78;20103;-59
2021/09/26 07:37:06;;;;;;;;;;;;;;;16.50;62.82;101732.16;1841397;78;20124;-60
2021/09/26 07:39:35;;;;;;;;;;;;;;;16.64;62.97;101750.12;1841334;78;20115;-60
2021/09/26 07:42:03;;;;;;;;;;;;;;;16.73;63.23;101719.09;1841224;78;20166;-60
2021/09/26 07:44:31;;;;;;;;;;;;;;;16.74;62.00;101739.41;1841375;78;20115;-61
2021/09/26 07:46:59;;;;;;;;;;;;;;;16.78;62.44;101714.38;1841312;78;20127;-62
2021/09/26 07:49:26;;;;;;;;;;;;;;;16.83;62.74;101738.14;1841363;78;20150;-63
2021/09/26 07:51:54;;;;;;;;;;;;;;;16.85;62.79;101722.48;1841420;78;20150;-62
2021/09/26 07:54:22;;;;;;;;;;;;;;;16.88;62.94;101749.42;1840827;78;20217;-64
2021/09/26 07:56:50;;;;;;;;;;;;;;;16.94;62.78;101743.31;1843671;77;20117;-64
2021/09/26 07:59:19;;;;;;;;;;;;;;;17.04;62.78;101734.86;1845745;78;20117;-63
2021/09/26 08:01:48;;;;;;;;;;;;;;;17.12;62.42;101735.36;1862656;75;20103;-62
2021/09/26 08:04:16;;;;;;;;;;;;;;;17.23;62.02;101732.16;1878888;76;20149;-62
2021/09/26 08:06:44;;;;;;;;;;;;;;;17.35;61.33;101713.75;1878812;76;20103;-62
2021/09/26 08:09:12;;;;;;;;;;;;;;;17.47;60.47;101730.02;1878716;76;20154;-62
2021/09/26 08:11:40;;;;;;;;;;;;;;;17.54;59.85;101740.74;1878786;76;20158;-62
2021/09/26 08:14:07;;;;;;;;;;;;;;;17.66;60.29;101722.77;1878755;76;20106;-63
2021/09/26 08:16:35;;;;;;;;;;;;;;;17.83;59.48;101742.31;1878775;76;20115;-61
2021/09/26 08:19:03;;;;;;;;;;;;;;;18.13;58.95;101727.36;1878758;76;20119;-61
2021/09/26 08:21:31;;;;;;;;;;;;;;;18.45;57.99;101739.84;1878648;76;20111;-61
2021/09/26 08:23:59;;;;;;;;;;;;;;;19.11;55.62;101645.31;1878760;76;20103;-62
2021/09/26 08:26:27;;;;;;;;;;;;;;;19.21;55.24;101717.20;1878783;76;20115;-62
2021/09/26 08:28:55;;;;;;;;;;;;;;;19.04;55.53;101724.03;1878895;76;20115;-62
2021/09/26 08:31:23;;;;;;;;;;;;;;;19.06;56.50;101724.80;1879035;76;20115;-62
2021/09/26 08:33:51;;;;;;;;;;;;;;;19.22;55.59;101745.63;1878884;76;20123;-63
2021/09/26 08:36:19;;;;;;;;;;;;;;;19.34;55.10;101736.50;1878802;76;20115;-63
2021/09/26 08:38:48;;;;;;;;;;;;;;;19.38;54.95;101735.35;1878923;76;20099;-62
2021/09/26 08:41:17;;;;;;;;;;;;;;;19.48;54.49;101736.53;1878880;76;20103;-62
2021/09/26 08:43:49;;;;;;;;;;;;;;;19.66;53.39;101735.41;1878257;76;20119;-62
2021/09/26 08:46:17;;;;;;;;;;;;;;;20.02;51.97;101735.41;1879147;75;20377;-62
2021/09/26 08:48:45;;;;;;;;;;;;;;;20.28;50.65;101716.00;1878826;76;20107;-63
2021/09/26 08:51:13;;;;;;;;;;;;;;;20.26;50.97;101717.43;1859817;77;20127;-63
2021/09/26 08:53:41;;;;;;;;;;;;;;;20.22;51.09;101736.83;1893951;76;20110;-63
2021/09/26 08:56:09;;;;;;;;;;;;;;;20.13;51.12;101709.83;1859813;77;20149;-63
2021/09/26 08:58:38;;;;;;;;;;;;;;;20.01;50.94;101739.06;1893960;76;20123;-63
2021/09/26 09:01:06;;;;;;;;;;;;;;;19.73;51.80;101716.34;1859760;77;20119;-63
2021/09/26 09:03:34;;;;;;;;;;;;;;;19.57;52.08;101746.66;1890389;75;20169;-63
2021/09/26 09:06:01;;;;;;;;;;;;;;;19.67;52.94;101738.44;1890265;76;20417;-63
2021/09/26 09:08:29;;;;;;;;;;;;;;;19.92;53.02;101732.95;1890247;76;20145;-63
2021/09/26 09:10:58;;;;;;;;;;;;;;;20.01;52.49;101751.09;1890281;76;20153;-63
2021/09/26 09:13:33;;;;;;;;;;;;;;;19.99;52.09;101734.30;1890246;76;20141;-62
2021/09/26 09:16:02;;;;;;;;;;;;;;;19.99;52.42;101740.09;1890246;76;20427;-62
2021/09/26 09:18:50;;;;;;;;;;;;;;;20.09;52.18;101743.91;1890287;76;20147;-62
2021/09/26 09:21:28;;;;;;;;;;;;;;;19.99;51.80;101689.30;1890121;75;20155;-63
2021/09/26 09:23:57;;;;;;;;;;;;;;;20.09;51.20;101747.08;1853535;77;20110;-63
2021/09/26 09:26:37;;;;;;;;;;;;;;;19.98;51.81;101722.36;1888183;75;20252;-62
2021/09/26 09:29:05;;;;;;;;;;;;;;;19.95;51.77;101703.83;1853550;77;20147;-63
2021/09/26 09:31:33;;;;;;;;;;;;;;;19.91;51.38;101736.57;1890263;76;20153;-62
2021/09/26 09:34:07;;;;;;;;;;;;;;;19.98;51.00;101743.73;1853527;77;20123;-62
2021/09/26 09:36:31;;;;;;;;;;;;;;;19.99;50.73;101720.92;1889590;75;20115;-64
2021/09/26 09:39:00;;;;;;;;;;;;;;;20.12;49.16;101741.52;1853533;77;20244;-64
2021/09/26 09:41:41;;;;;;;;;;;;;;;20.10;49.67;101722.89;1890205;76;20115;-65
2021/09/26 09:44:10;;;;;;;;;;;;;;;20.00;49.79;101717.28;1878266;75;20382;-64
2021/09/26 09:46:39;;;;;;;;;;;;;;;19.93;49.84;101698.58;1878254;76;20456;-64
2021/09/26 09:49:09;;;;;;;;;;;;;;;19.75;49.64;101704.59;1878175;76;20119;-64
2021/09/26 09:51:38;;;;;;;;;;;;;;;19.61;49.94;101731.30;1876022;76;20135;-64
2021/09/26 09:54:11;;;;;;;;;;;;;;;19.66;51.01;101717.16;1878252;76;20111;-63
2021/09/26 09:56:43;;;;;;;;;;;;;;;19.62;50.68;101727.20;1877857;76;20116;-64
2021/09/26 09:59:14;;;;;;;;;;;;;;;19.59;51.22;101714.51;1878386;76;20349;-65
2021/09/26 10:01:43;;;;;;;;;;;;;;;19.54;50.52;101704.09;1878162;76;20103;-64
2021/09/26 10:04:12;;;;;;;;;;;;;;;19.48;50.65;101695.98;1878345;76;20405;-63
2021/09/26 10:06:41;;;;;;;;;;;;;;;19.42;50.38;101674.12;1878209;76;20115;-64
2021/09/26 10:09:19;;;;;;;;;;;;;;;19.32;50.75;101660.97;1878362;76;20119;-65
2021/09/26 10:11:49;;;;;;;;;;;;;;;19.27;51.64;101699.50;1878250;76;20420;-63
2021/09/26 10:14:18;;;;;;;;;;;;;;;19.27;52.02;101702.16;1877607;76;20463;-67
2021/09/26 10:16:46;;;;;;;;;;;;;;;19.22;52.64;101694.91;1893282;75;20389;-69
2021/09/26 10:19:14;;;;;;;;;;;;;;;19.21;52.50;101698.51;1907783;75;20130;-67
2021/09/26 10:21:42;;;;;;;;;;;;;;;19.08;52.94;101678.85;1907587;75;20172;-68
2021/09/26 10:24:11;;;;;;;;;;;;;;;19.02;52.84;101701.91;1907582;75;20107;-76
2021/09/26 10:26:39;;;;;;;;;;;;;;;19.02;52.08;101686.75;1907473;75;20145;-68
2021/09/26 10:29:09;;;;;;;;;;;;;;;19.05;51.85;101662.55;1907772;75;20115;-68
2021/09/26 10:31:37;;;;;;;;;;;;;;;19.03;51.48;101683.59;1893282;75;20133;-70
2021/09/26 10:34:05;;;;;;;;;;;;;;;19.02;51.07;101697.42;1875480;77;20145;-68
2021/09/26 10:36:33;;;;;;;;;;;;;;;19.02;51.63;101675.22;1868266;75;20164;-67
2021/09/26 10:39:02;;;;;;;;;;;;;;;19.02;50.55;101688.57;1857568;77;20386;-69
2021/09/26 10:41:30;;;;;;;;;;;;;;;19.02;50.96;101635.19;1858304;75;20386;-62
2021/09/26 10:44:01;;;;;;;;;;;;;;;18.97;50.98;101683.98;1857611;77;20148;-62
2021/09/26 10:46:30;;;;;;;;;;;;;;;18.89;51.30;101670.61;1874251;75;20420;-63
2021/09/26 10:48:59;;;;;;;;;;;;;;;18.86;51.78;101681.45;1898881;75;20146;-64
2021/09/26 10:51:44;;;;;;;;;;;;;;;18.86;52.04;101696.12;1903480;75;20153;-62
2021/09/26 10:54:22;;;;;;;;;;;;;;;18.87;51.69;101673.84;1907109;75;20408;-63
2021/09/26 10:56:51;;;;;;;;;;;;;;;18.89;51.74;101691.95;1907406;75;20115;-63
2021/09/26 10:59:20;;;;;;;;;;;;;;;18.89;51.69;101707.12;1907697;75;20381;-63
2021/09/26 11:01:48;;;;;;;;;;;;;;;18.86;51.95;101706.80;1907596;75;20154;-62
2021/09/26 11:04:17;;;;;;;;;;;;;;;18.82;51.74;101698.59;1907638;75;20150;-63
2021/09/26 11:06:45;;;;;;;;;;;;;;;18.77;51.05;101673.95;1911635;74;20162;-62
2021/09/26 11:09:13;;;;;;;;;;;;;;;18.71;51.27;101689.84;1907636;75;20420;-63
2021/09/26 11:11:42;;;;;;;;;;;;;;;18.70;51.50;101717.95;1907626;75;20404;-64
2021/09/26 11:14:10;;;;;;;;;;;;;;;18.76;51.59;101709.61;1907855;74;20142;-65
2021/09/26 11:16:57;;;;;;;;;;;;;;;18.77;51.78;101709.98;1907549;75;20145;-64
2021/09/26 11:19:26;;;;;;;;;;;;;;;18.83;51.65;101728.80;1907980;74;20115;-64
2021/09/26 11:21:58;;;;;;;;;;;;;;;18.98;51.88;101708.36;1907651;75;20150;-64
2021/09/26 11:24:34;;;;;;;;;;;;;;;19.19;51.45;101711.09;1907719;75;20374;-65
2021/09/26 11:27:03;;;;;;;;;;;;;;;19.42;50.77;101691.48;1907549;75;20369;-66
2021/09/26 11:29:32;;;;;;;;;;;;;;;19.70;51.03;101697.78;1907597;75;20154;-65
2021/09/26 11:32:00;;;;;;;;;;;;;;;19.77;50.67;101697.36;1911809;74;20124;-69
2021/09/26 11:34:36;;;;;;;;;;;;;;;19.83;50.71;101694.78;1907742;75;20439;-72
2021/09/26 11:39:53;;;;;;;;;;;;;;;19.78;50.96;101682.18;1993706;72;20216;-64
2021/09/26 11:42:34;;;;;;;;;;;;;;;19.88;50.61;101640.53;1993657;72;20110;-67
2021/09/26 11:45:03;;;;;;;;;;;;;;;19.80;51.15;101669.58;1993627;72;20954;-67
2021/09/26 11:47:31;;;;;;;;;;;;;;;19.78;51.30;101676.35;1993560;72;20144;-68
2021/09/26 11:50:04;;;;;;;;;;;;;;;19.77;51.67;101656.40;1993499;72;20136;-68
2021/09/26 11:52:33;;;;;;;;;;;;;;;19.67;51.96;101656.09;1993627;72;20122;-67
2021/09/26 11:55:00;;;;;;;;;;;;;;;19.59;52.36;101678.45;1993356;72;20110;-67
2021/09/26 11:57:28;;;;;;;;;;;;;;;19.45;52.29;101668.11;1993560;72;20098;-68
2021/09/26 11:59:56;;;;;;;;;;;;;;;19.34;52.54;101670.59;1993678;72;20157;-68
2021/09/26 12:02:24;;;;;;;;;;;;;;;19.18;52.88;101658.67;1964291;72;20124;-70
2021/09/26 12:04:52;;;;;;;;;;;;;;;19.03;53.70;101650.23;1956441;73;20108;-68
2021/09/26 12:07:19;;;;;;;;;;;;;;;18.91;53.93;101651.84;1984502;72;20106;-68
2021/09/26 12:09:48;;;;;;;;;;;;;;;18.84;54.65;101650.48;1993699;72;20118;-67
2021/09/26 12:12:17;;;;;;;;;;;;;;;18.81;54.80;101667.55;1993662;72;20157;-68
2021/09/26 12:14:47;;;;;;;;;;;;;;;18.72;55.48;101653.38;1993627;72;20411;-67
2021/09/26 12:17:16;;;;;;;;;;;;;;;18.68;56.10;101659.38;1966994;72;20390;-68
2021/09/26 12:19:45;;;;;;;;;;;;;;;18.69;56.42;101652.22;1955495;73;20116;-67
2021/09/26 12:22:14;;;;;;;;;;;;;;;18.63;56.63;101665.92;1982779;72;20102;-68
2021/09/26 12:24:43;;;;;;;;;;;;;;;18.59;57.04;101667.03;1993644;72;20368;-68
2021/09/26 12:27:28;;;;;;;;;;;;;;;18.51;57.46;101672.81;1993623;72;20140;-67
2021/09/26 12:30:06;;;;;;;;;;;;;;;18.43;57.95;101675.92;1993625;72;20145;-67
2021/09/26 12:32:35;;;;;;;;;;;;;;;18.37;58.60;101676.29;1993604;72;20108;-68
2021/09/26 12:35:04;;;;;;;;;;;;;;;18.31;59.45;101673.95;1993703;72;20094;-65
2021/09/26 12:37:33;;;;;;;;;;;;;;;18.25;59.63;101671.64;1993790;72;20102;-67
2021/09/26 12:40:02;;;;;;;;;;;;;;;18.19;60.71;101666.67;1993562;72;20144;-65
2021/09/26 12:42:32;;;;;;;;;;;;;;;18.16;60.94;101661.50;1993500;72;20122;-65
2021/09/26 12:45:01;;;;;;;;;;;;;;;18.12;61.12;101653.67;1993710;72;20109;-63
2021/09/26 12:47:30;;;;;;;;;;;;;;;18.09;61.42;101641.87;1977871;72;20113;-70
2021/09/26 12:49:59;;;;;;;;;;;;;;;18.07;61.94;101644.22;1977496;73;20109;-64
2021/09/26 12:52:28;;;;;;;;;;;;;;;18.02;62.41;101639.16;1990265;72;20144;-65
2021/09/26 12:54:58;;;;;;;;;;;;;;;17.94;62.82;101655.58;1993445;72;20110;-68
2021/09/26 12:57:26;;;;;;;;;;;;;;;17.86;63.61;101656.94;1991629;72;20152;-66